createdAt,value
2022-12-15T00:00:07.156Z,96.37
2022-12-15T00:05:28.124Z,96.40
2022-12-15T00:10:48.709Z,96.39
2022-12-15T00:16:10.574Z,96.55
2022-12-15T00:21:32.547Z,97.03
2022-12-15T00:26:53.145Z,96.98
2022-12-15T00:32:14.265Z,97.10
2022-12-15T00:37:34.894Z,97.18
2022-12-15T00:42:36.670Z,97.36
2022-12-15T00:47:38.511Z,97.54
2022-12-15T00:52:59.246Z,97.45
2022-12-15T00:58:19.636Z,97.54
2022-12-15T01:03:42.647Z,97.61
2022-12-15T01:09:03.589Z,97.81
2022-12-15T01:14:24.197Z,98.18
2022-12-15T01:19:44.828Z,98.41
2022-12-15T01:24:46.759Z,98.48
2022-12-15T01:29:48.523Z,98.28
2022-12-15T01:34:50.285Z,98.57
2022-12-15T01:40:10.845Z,98.78
2022-12-15T01:45:24.691Z,98.62
2022-12-15T01:50:28.797Z,98.88
2022-12-15T01:55:32.141Z,98.98
2022-12-15T02:00:34.551Z,99.23
2022-12-15T02:05:36.992Z,99.38
2022-12-15T02:11:13.527Z,99.48
2022-12-15T02:16:28.326Z,99.27
2022-12-15T02:21:42.191Z,99.30
2022-12-15T02:26:53.015Z,99.48
2022-12-15T02:32:07.806Z,99.42
2022-12-15T02:37:23.082Z,99.57
2022-12-15T02:42:28.316Z,99.33
2022-12-15T02:47:54.869Z,99.49
2022-12-15T02:53:24.485Z,99.38
2022-12-15T02:58:45.735Z,99.53
2022-12-15T03:03:49.947Z,99.36
2022-12-15T03:08:51.690Z,98.97
2022-12-15T03:13:54.339Z,98.90
2022-12-15T03:18:56.059Z,98.94
2022-12-15T03:23:57.905Z,98.84
2022-12-15T03:29:00.494Z,98.95
2022-12-15T03:34:02.350Z,99.08
2022-12-15T03:39:04.640Z,99.31
2022-12-15T03:44:06.474Z,99.09
2022-12-15T03:49:08.286Z,99.06
2022-12-15T03:54:12.551Z,99.50
2022-12-15T03:59:14.396Z,98.88
2022-12-15T04:04:16.225Z,98.58
2022-12-15T04:09:19.453Z,98.88
2022-12-15T04:14:32.613Z,98.85
2022-12-15T04:19:53.249Z,98.62
2022-12-15T04:25:13.687Z,98.68
2022-12-15T04:30:34.507Z,98.50
2022-12-15T04:35:55.160Z,98.46
2022-12-15T04:41:15.782Z,98.60
2022-12-15T04:46:36.409Z,98.78
2022-12-15T04:51:57.041Z,98.74
2022-12-15T04:57:17.627Z,98.98
2022-12-15T05:02:38.329Z,98.82
2022-12-15T05:07:59.103Z,98.21
2022-12-15T05:13:24.900Z,98.45
2022-12-15T05:18:45.281Z,98.65
2022-12-15T05:24:05.820Z,98.29
2022-12-15T05:29:26.411Z,98.02
2022-12-15T05:34:31.174Z,98.06
2022-12-15T05:39:33.152Z,97.88
2022-12-15T05:44:34.943Z,97.97
2022-12-15T05:49:36.768Z,97.94
2022-12-15T05:54:38.531Z,97.72
2022-12-15T05:59:40.323Z,97.62
2022-12-15T06:04:42.092Z,97.54
2022-12-15T06:09:43.933Z,97.48
2022-12-15T06:14:45.726Z,97.63
2022-12-15T06:19:51.566Z,97.63
2022-12-15T06:24:53.340Z,97.20
2022-12-15T06:29:55.186Z,97.01
2022-12-15T06:34:57.423Z,97.07
2022-12-15T06:39:59.175Z,97.37
2022-12-15T06:45:00.892Z,97.15
2022-12-15T06:50:02.755Z,97.13
2022-12-15T06:55:04.926Z,96.83
2022-12-15T07:00:07.540Z,97.09
2022-12-15T07:05:09.535Z,96.87
2022-12-15T07:10:11.967Z,96.90
2022-12-15T07:15:13.785Z,96.62
2022-12-15T07:20:15.574Z,96.53
2022-12-15T07:25:17.751Z,96.57
2022-12-15T07:30:19.536Z,97.01
2022-12-15T07:35:21.884Z,96.90
2022-12-15T07:40:23.794Z,96.52
2022-12-15T07:45:25.672Z,96.25
2022-12-15T07:50:29.060Z,96.22
2022-12-15T07:55:57.104Z,96.05
2022-12-15T08:00:53.363Z,95.42
2022-12-15T08:06:02.038Z,95.31
2022-12-15T08:11:11.239Z,95.54
2022-12-15T08:16:13.081Z,95.56
2022-12-15T08:21:15.030Z,94.59
2022-12-15T08:26:18.743Z,94.63
2022-12-15T08:31:22.597Z,94.45
2022-12-15T08:36:24.468Z,94.41
2022-12-15T08:41:32.465Z,94.50
2022-12-15T08:46:34.763Z,94.30
2022-12-15T08:51:36.871Z,94.29
2022-12-15T08:56:38.799Z,93.95
2022-12-15T09:01:41.808Z,93.90
2022-12-15T09:06:44.256Z,93.89
2022-12-15T09:11:50.362Z,93.11
2022-12-15T09:16:52.240Z,92.31
2022-12-15T09:21:54.120Z,92.55
2022-12-15T09:26:56.464Z,92.12
2022-12-15T09:31:58.271Z,92.45
2022-12-15T09:37:00.268Z,92.48
2022-12-15T09:42:02.232Z,91.74
2022-12-15T09:47:17.418Z,92.00
2022-12-15T09:52:25.164Z,91.78
2022-12-15T09:57:54.298Z,90.79
2022-12-15T10:03:05.118Z,89.57
2022-12-15T10:08:07.036Z,90.23
2022-12-15T10:13:24.905Z,90.01
2022-12-15T10:18:42.532Z,89.81
2022-12-15T10:23:44.422Z,89.29
2022-12-15T10:29:02.464Z,88.53
2022-12-15T10:34:18.992Z,88.78
2022-12-15T10:39:21.853Z,88.34
2022-12-15T10:44:31.857Z,88.03
2022-12-15T10:49:34.235Z,88.29
2022-12-15T10:54:43.621Z,87.80
2022-12-15T10:59:45.436Z,87.59
2022-12-15T11:05:01.275Z,87.16
2022-12-15T11:10:19.941Z,88.02
2022-12-15T11:15:21.672Z,86.97
2022-12-15T11:20:31.761Z,85.72
2022-12-15T11:25:42.158Z,85.10
2022-12-15T11:30:52.342Z,85.36
2022-12-15T11:36:22.522Z,85.50
2022-12-15T11:41:42.656Z,85.27
2022-12-15T11:46:55.110Z,85.53
2022-12-15T11:52:23.876Z,86.24
2022-12-15T11:57:25.568Z,85.64
2022-12-15T12:02:43.871Z,85.76
2022-12-15T12:08:01.031Z,87.23
2022-12-15T12:13:14.840Z,87.31
2022-12-15T12:18:31.325Z,86.85
2022-12-15T12:23:50.378Z,86.60
2022-12-15T12:29:04.165Z,86.75
2022-12-15T12:34:14.195Z,86.67
2022-12-15T12:39:23.207Z,86.66
2022-12-15T12:44:39.703Z,86.65
2022-12-15T12:49:50.261Z,86.69
2022-12-15T12:54:57.758Z,86.97
2022-12-15T13:00:12.325Z,86.42
2022-12-15T13:05:30.916Z,86.61
2022-12-15T13:10:41.806Z,86.67
2022-12-15T13:15:49.152Z,87.12
2022-12-15T13:20:58.020Z,87.22
2022-12-15T13:26:00.860Z,87.19
2022-12-15T13:31:18.785Z,87.73
2022-12-15T13:36:39.710Z,87.58
2022-12-15T13:42:15.399Z,86.88
2022-12-15T13:47:18.840Z,87.87
2022-12-15T13:52:38.100Z,87.72
2022-12-15T13:57:56.858Z,87.79
2022-12-15T14:03:12.260Z,87.75
2022-12-15T14:08:17.125Z,88.60
2022-12-15T14:13:21.529Z,88.81
2022-12-15T14:18:23.427Z,88.65
2022-12-15T14:23:29.995Z,88.37
2022-12-15T14:28:37.157Z,88.80
2022-12-15T14:33:42.092Z,89.10
2022-12-15T14:39:06.444Z,89.22
2022-12-15T14:44:37.438Z,89.52
2022-12-15T14:49:42.761Z,89.26
2022-12-15T15:00:30.506Z,89.70
2022-12-15T15:05:33.173Z,89.84
2022-12-15T15:10:35.057Z,90.37
2022-12-15T15:15:36.870Z,90.44
2022-12-15T15:20:38.755Z,90.40
2022-12-15T15:25:49.072Z,90.14
2022-12-15T15:30:52.301Z,90.33
2022-12-15T15:36:00.755Z,90.27
2022-12-15T15:41:17.921Z,90.58
2022-12-15T15:46:22.793Z,90.35
2022-12-15T15:51:26.267Z,90.23
2022-12-15T15:56:30.873Z,90.06
2022-12-15T16:01:32.891Z,90.45
2022-12-15T16:06:36.327Z,90.84
2022-12-15T16:11:38.263Z,91.28
2022-12-15T16:16:40.268Z,91.21
2022-12-15T16:21:43.015Z,91.29
2022-12-15T16:26:48.632Z,91.27
2022-12-15T16:31:50.601Z,91.20
2022-12-15T16:36:52.560Z,91.23
2022-12-15T16:41:56.230Z,91.62
2022-12-15T16:46:58.899Z,91.69
2022-12-15T16:52:01.164Z,92.04
2022-12-15T16:57:03.754Z,91.90
2022-12-15T17:02:37.504Z,92.19
2022-12-15T17:07:42.020Z,92.45
2022-12-15T17:12:44.929Z,92.56
2022-12-15T17:17:47.084Z,92.50
2022-12-15T17:22:53.385Z,92.53
2022-12-15T17:27:56.381Z,92.85
2022-12-15T17:32:58.664Z,92.60
2022-12-15T17:38:00.611Z,92.51
2022-12-15T17:43:02.379Z,92.68
2022-12-15T17:48:05.569Z,92.82
2022-12-15T17:53:10.138Z,92.68
2022-12-15T17:58:22.047Z,92.86
2022-12-15T18:03:24.451Z,93.14
2022-12-15T18:08:28.179Z,93.48
2022-12-15T18:13:35.290Z,93.57
2022-12-15T18:18:39.816Z,93.66
2022-12-15T18:23:42.134Z,93.53
2022-12-15T18:28:44.334Z,93.83
2022-12-15T18:33:46.466Z,93.68
2022-12-15T18:38:48.651Z,93.77
2022-12-15T18:43:58.571Z,94.17
2022-12-15T18:49:01.488Z,93.88
2022-12-15T18:54:03.970Z,93.90
2022-12-15T18:59:10.625Z,93.91
2022-12-15T19:04:14.507Z,94.00
2022-12-15T19:09:22.905Z,94.21
2022-12-15T19:14:43.474Z,93.93
2022-12-15T19:20:03.914Z,94.38
2022-12-15T19:25:07.307Z,94.40
2022-12-15T19:30:18.535Z,94.19
2022-12-15T19:35:20.707Z,94.37
2022-12-15T19:40:30.472Z,94.34
2022-12-15T19:45:34.098Z,94.36
2022-12-15T19:50:37.724Z,94.45
2022-12-15T19:55:40.614Z,94.47
2022-12-15T20:00:42.499Z,94.75
2022-12-15T20:05:46.795Z,95.06
2022-12-15T20:10:49.845Z,94.98
2022-12-15T20:15:51.773Z,95.02
2022-12-15T20:20:53.741Z,95.10
2022-12-15T20:25:56.366Z,94.84
2022-12-15T20:30:58.871Z,95.32
2022-12-15T20:36:00.684Z,95.10
2022-12-15T20:41:04.274Z,95.25
2022-12-15T20:46:11.205Z,94.84
2022-12-15T20:51:20.796Z,95.13
2022-12-15T20:56:23.934Z,95.29
2022-12-15T21:01:31.808Z,95.64
2022-12-15T21:06:33.736Z,95.57
2022-12-15T21:11:35.530Z,95.76
2022-12-15T21:16:37.305Z,95.91
2022-12-15T21:21:44.319Z,95.74
2022-12-15T21:26:46.768Z,96.04
2022-12-15T21:31:49.158Z,95.91
2022-12-15T21:36:55.043Z,96.13
2022-12-15T21:42:04.957Z,96.41
2022-12-15T21:47:52.049Z,96.21
2022-12-15T21:52:54.336Z,96.57
2022-12-15T21:57:57.570Z,96.91
2022-12-15T22:02:59.400Z,97.07
2022-12-15T22:08:13.084Z,96.74
2022-12-15T22:13:21.212Z,96.99
2022-12-15T22:18:23.703Z,96.84
2022-12-15T22:23:25.488Z,96.99
2022-12-15T22:28:28.560Z,97.01
2022-12-15T22:33:31.662Z,96.90
2022-12-15T22:38:33.793Z,96.95
2022-12-15T22:43:41.676Z,96.77
2022-12-15T22:48:51.926Z,97.33
2022-12-15T22:53:53.702Z,97.10
2022-12-15T22:59:05.836Z,96.95
2022-12-15T23:04:07.705Z,97.32
2022-12-15T23:09:10.120Z,97.10
2022-12-15T23:14:18.043Z,96.89
2022-12-15T23:19:28.773Z,97.20
2022-12-15T23:24:31.363Z,97.06
2022-12-15T23:29:33.077Z,97.22
2022-12-15T23:34:34.933Z,97.22
2022-12-15T23:39:36.667Z,96.87
2022-12-15T23:44:38.620Z,96.91
2022-12-15T23:49:40.437Z,97.05
2022-12-15T23:54:42.210Z,96.85
2022-12-15T23:59:44.218Z,96.57
